sensor_id;sensor_type;location;lat;lon;timestamp;P1;durP1;ratioP1;P2;durP2;ratioP2
18510;SDS011;9384;48.044;11.616;2022-10-31T00:00:05;11.80;;;4.60;;
18510;SDS011;9384;48.044;11.616;2022-10-31T00:02:34;8.50;;;4.20;;
18510;SDS011;9384;48.044;11.616;2022-10-31T00:05:00;11.93;;;4.23;;
18510;SDS011;9384;48.044;11.616;2022-10-31T00:07:27;7.40;;;3.53;;
18510;SDS011;9384;48.044;11.616;2022-10-31T00:09:54;14.60;;;4.00;;
18510;SDS011;9384;48.044;11.616;2022-10-31T00:12:21;7.30;;;3.80;;
18510;SDS011;9384;48.044;11.616;2022-10-31T00:14:49;12.37;;;3.77;;
18510;SDS011;9384;48.044;11.616;2022-10-31T00:17:16;7.70;;;3.70;;
18510;SDS011;9384;48.044;11.616;2022-10-31T00:19:43;8.37;;;3.80;;
18510;SDS011;9384;48.044;11.616;2022-10-31T00:22:09;5.83;;;3.67;;
18510;SDS011;9384;48.044;11.616;2022-10-31T00:24:36;6.87;;;3.60;;
18510;SDS011;9384;48.044;11.616;2022-10-31T00:27:03;7.17;;;3.63;;
18510;SDS011;9384;48.044;11.616;2022-10-31T00:29:30;8.07;;;4.00;;
18510;SDS011;9384;48.044;11.616;2022-10-31T00:31:58;4.70;;;3.43;;
18510;SDS011;9384;48.044;11.616;2022-10-31T00:34:25;8.23;;;4.07;;
18510;SDS011;9384;48.044;11.616;2022-10-31T00:36:52;7.80;;;3.53;;
18510;SDS011;9384;48.044;11.616;2022-10-31T00:39:19;8.03;;;3.33;;
18510;SDS011;9384;48.044;11.616;2022-10-31T00:41:46;6.33;;;3.77;;
18510;SDS011;9384;48.044;11.616;2022-10-31T00:44:12;10.43;;;4.20;;
18510;SDS011;9384;48.044;11.616;2022-10-31T00:46:39;12.93;;;4.20;;
18510;SDS011;9384;48.044;11.616;2022-10-31T00:49:07;4.23;;;3.30;;
18510;SDS011;9384;48.044;11.616;2022-10-31T00:51:34;7.50;;;3.47;;
18510;SDS011;9384;48.044;11.616;2022-10-31T00:54:01;10.57;;;3.90;;
18510;SDS011;9384;48.044;11.616;2022-10-31T00:56:28;8.03;;;3.97;;
18510;SDS011;9384;48.044;11.616;2022-10-31T00:58:55;6.47;;;4.13;;
18510;SDS011;9384;48.044;11.616;2022-10-31T01:01:22;10.13;;;3.80;;
18510;SDS011;9384;48.044;11.616;2022-10-31T01:03:48;11.13;;;4.07;;
18510;SDS011;9384;48.044;11.616;2022-10-31T01:06:17;10.33;;;4.27;;
18510;SDS011;9384;48.044;11.616;2022-10-31T01:08:43;8.27;;;3.47;;
18510;SDS011;9384;48.044;11.616;2022-10-31T01:11:13;8.77;;;4.23;;
18510;SDS011;9384;48.044;11.616;2022-10-31T01:13:41;9.10;;;4.20;;
18510;SDS011;9384;48.044;11.616;2022-10-31T01:16:10;5.93;;;3.73;;
18510;SDS011;9384;48.044;11.616;2022-10-31T01:18:38;6.67;;;3.30;;
18510;SDS011;9384;48.044;11.616;2022-10-31T01:21:06;12.07;;;3.60;;
18510;SDS011;9384;48.044;11.616;2022-10-31T01:23:35;10.17;;;4.00;;
18510;SDS011;9384;48.044;11.616;2022-10-31T01:26:04;9.60;;;3.80;;
18510;SDS011;9384;48.044;11.616;2022-10-31T01:28:33;14.10;;;4.10;;
18510;SDS011;9384;48.044;11.616;2022-10-31T01:31:01;11.57;;;3.80;;
18510;SDS011;9384;48.044;11.616;2022-10-31T01:33:29;15.43;;;4.67;;
18510;SDS011;9384;48.044;11.616;2022-10-31T01:35:56;10.20;;;4.30;;
18510;SDS011;9384;48.044;11.616;2022-10-31T01:38:23;6.73;;;3.57;;
18510;SDS011;9384;48.044;11.616;2022-10-31T01:40:51;8.03;;;3.53;;
18510;SDS011;9384;48.044;11.616;2022-10-31T01:43:18;6.17;;;3.57;;
18510;SDS011;9384;48.044;11.616;2022-10-31T01:45:46;4.07;;;3.23;;
18510;SDS011;9384;48.044;11.616;2022-10-31T01:48:19;10.03;;;3.53;;
18510;SDS011;9384;48.044;11.616;2022-10-31T01:50:50;9.50;;;3.43;;
18510;SDS011;9384;48.044;11.616;2022-10-31T01:53:20;5.57;;;3.40;;
18510;SDS011;9384;48.044;11.616;2022-10-31T01:55:48;9.07;;;3.37;;
18510;SDS011;9384;48.044;11.616;2022-10-31T01:58:18;6.93;;;3.13;;
18510;SDS011;9384;48.044;11.616;2022-10-31T02:00:48;10.90;;;3.67;;
18510;SDS011;9384;48.044;11.616;2022-10-31T02:03:18;9.00;;;3.40;;
18510;SDS011;9384;48.044;11.616;2022-10-31T02:05:48;6.47;;;3.13;;
18510;SDS011;9384;48.044;11.616;2022-10-31T02:08:16;9.67;;;3.63;;
18510;SDS011;9384;48.044;11.616;2022-10-31T02:10:46;10.67;;;3.63;;
18510;SDS011;9384;48.044;11.616;2022-10-31T02:13:13;7.63;;;3.43;;
18510;SDS011;9384;48.044;11.616;2022-10-31T02:15:42;8.70;;;3.27;;
18510;SDS011;9384;48.044;11.616;2022-10-31T02:18:11;4.13;;;2.87;;
18510;SDS011;9384;48.044;11.616;2022-10-31T02:20:40;5.97;;;2.90;;
18510;SDS011;9384;48.044;11.616;2022-10-31T02:32:27;5.67;;;3.07;;
18510;SDS011;9384;48.044;11.616;2022-10-31T02:35:03;7.87;;;3.23;;
18510;SDS011;9384;48.044;11.616;2022-10-31T02:37:37;7.10;;;2.80;;
18510;SDS011;9384;48.044;11.616;2022-10-31T02:40:11;5.97;;;2.83;;
18510;SDS011;9384;48.044;11.616;2022-10-31T02:42:45;6.87;;;2.63;;
18510;SDS011;9384;48.044;11.616;2022-10-31T02:45:17;13.47;;;3.20;;
18510;SDS011;9384;48.044;11.616;2022-10-31T02:47:50;7.70;;;3.53;;
18510;SDS011;9384;48.044;11.616;2022-10-31T02:50:22;9.70;;;3.60;;
18510;SDS011;9384;48.044;11.616;2022-10-31T02:52:52;9.70;;;2.60;;
18510;SDS011;9384;48.044;11.616;2022-10-31T02:58:13;3.63;;;3.23;;
18510;SDS011;9384;48.044;11.616;2022-10-31T03:00:45;9.37;;;3.17;;
18510;SDS011;9384;48.044;11.616;2022-10-31T03:03:19;6.37;;;2.60;;
18510;SDS011;9384;48.044;11.616;2022-10-31T03:05:52;10.97;;;3.43;;
18510;SDS011;9384;48.044;11.616;2022-10-31T03:08:27;8.10;;;2.90;;
18510;SDS011;9384;48.044;11.616;2022-10-31T03:11:01;6.07;;;3.40;;
18510;SDS011;9384;48.044;11.616;2022-10-31T03:13:31;6.87;;;2.90;;
18510;SDS011;9384;48.044;11.616;2022-10-31T03:16:03;4.20;;;3.00;;
18510;SDS011;9384;48.044;11.616;2022-10-31T03:18:37;4.27;;;2.87;;
18510;SDS011;9384;48.044;11.616;2022-10-31T03:21:07;5.13;;;3.00;;
18510;SDS011;9384;48.044;11.616;2022-10-31T03:23:38;6.10;;;2.80;;
18510;SDS011;9384;48.044;11.616;2022-10-31T03:26:06;3.93;;;3.43;;
18510;SDS011;9384;48.044;11.616;2022-10-31T03:28:36;12.63;;;3.10;;
18510;SDS011;9384;48.044;11.616;2022-10-31T03:31:07;2.47;;;2.27;;
18510;SDS011;9384;48.044;11.616;2022-10-31T03:33:37;9.97;;;3.20;;
18510;SDS011;9384;48.044;11.616;2022-10-31T03:36:07;5.90;;;2.43;;
18510;SDS011;9384;48.044;11.616;2022-10-31T03:38:36;8.73;;;2.83;;
18510;SDS011;9384;48.044;11.616;2022-10-31T03:41:06;8.93;;;2.53;;
18510;SDS011;9384;48.044;11.616;2022-10-31T03:43:40;6.87;;;2.90;;
18510;SDS011;9384;48.044;11.616;2022-10-31T03:46:12;3.23;;;2.57;;
18510;SDS011;9384;48.044;11.616;2022-10-31T03:48:41;5.87;;;2.40;;
18510;SDS011;9384;48.044;11.616;2022-10-31T03:51:10;4.13;;;2.90;;
18510;SDS011;9384;48.044;11.616;2022-10-31T03:53:44;3.40;;;2.50;;
18510;SDS011;9384;48.044;11.616;2022-10-31T03:56:16;8.47;;;2.60;;
18510;SDS011;9384;48.044;11.616;2022-10-31T03:58:47;4.60;;;2.67;;
18510;SDS011;9384;48.044;11.616;2022-10-31T04:01:18;4.97;;;3.00;;
18510;SDS011;9384;48.044;11.616;2022-10-31T04:03:48;5.83;;;2.73;;
18510;SDS011;9384;48.044;11.616;2022-10-31T04:06:16;3.17;;;2.40;;
18510;SDS011;9384;48.044;11.616;2022-10-31T04:08:48;2.87;;;2.50;;
18510;SDS011;9384;48.044;11.616;2022-10-31T04:11:17;6.70;;;2.93;;
18510;SDS011;9384;48.044;11.616;2022-10-31T04:13:49;7.10;;;2.43;;
18510;SDS011;9384;48.044;11.616;2022-10-31T04:16:17;3.40;;;2.90;;
18510;SDS011;9384;48.044;11.616;2022-10-31T04:18:46;5.37;;;3.00;;
18510;SDS011;9384;48.044;11.616;2022-10-31T04:21:14;4.03;;;2.23;;
18510;SDS011;9384;48.044;11.616;2022-10-31T04:23:41;9.63;;;3.00;;
18510;SDS011;9384;48.044;11.616;2022-10-31T04:26:09;5.73;;;2.60;;
18510;SDS011;9384;48.044;11.616;2022-10-31T04:28:37;2.73;;;2.40;;
18510;SDS011;9384;48.044;11.616;2022-10-31T04:31:04;3.23;;;2.60;;
18510;SDS011;9384;48.044;11.616;2022-10-31T04:33:31;2.53;;;2.23;;
18510;SDS011;9384;48.044;11.616;2022-10-31T04:35:58;9.37;;;2.80;;
18510;SDS011;9384;48.044;11.616;2022-10-31T04:38:26;7.47;;;3.10;;
18510;SDS011;9384;48.044;11.616;2022-10-31T04:40:53;3.70;;;2.80;;
18510;SDS011;9384;48.044;11.616;2022-10-31T04:43:20;6.23;;;2.70;;
18510;SDS011;9384;48.044;11.616;2022-10-31T04:45:47;9.27;;;3.43;;
18510;SDS011;9384;48.044;11.616;2022-10-31T04:48:14;2.70;;;2.50;;
18510;SDS011;9384;48.044;11.616;2022-10-31T04:50:41;4.53;;;2.73;;
18510;SDS011;9384;48.044;11.616;2022-10-31T04:53:08;3.40;;;2.40;;
18510;SDS011;9384;48.044;11.616;2022-10-31T04:55:37;5.60;;;2.37;;
18510;SDS011;9384;48.044;11.616;2022-10-31T04:58:03;5.53;;;3.00;;
18510;SDS011;9384;48.044;11.616;2022-10-31T05:00:30;2.30;;;2.20;;
18510;SDS011;9384;48.044;11.616;2022-10-31T05:02:57;5.33;;;2.53;;
18510;SDS011;9384;48.044;11.616;2022-10-31T05:05:25;5.47;;;2.40;;
18510;SDS011;9384;48.044;11.616;2022-10-31T05:07:53;3.13;;;2.50;;
18510;SDS011;9384;48.044;11.616;2022-10-31T05:10:20;3.43;;;2.63;;
18510;SDS011;9384;48.044;11.616;2022-10-31T05:12:51;5.10;;;2.80;;
18510;SDS011;9384;48.044;11.616;2022-10-31T05:15:19;5.13;;;2.20;;
18510;SDS011;9384;48.044;11.616;2022-10-31T05:17:47;2.70;;;2.50;;
18510;SDS011;9384;48.044;11.616;2022-10-31T05:20:15;5.93;;;1.90;;
18510;SDS011;9384;48.044;11.616;2022-10-31T05:22:43;4.43;;;2.07;;
18510;SDS011;9384;48.044;11.616;2022-10-31T05:25:11;6.87;;;2.43;;
18510;SDS011;9384;48.044;11.616;2022-10-31T05:27:39;2.47;;;2.10;;
18510;SDS011;9384;48.044;11.616;2022-10-31T05:30:08;8.60;;;2.10;;
18510;SDS011;9384;48.044;11.616;2022-10-31T05:32:36;7.37;;;2.60;;
18510;SDS011;9384;48.044;11.616;2022-10-31T05:35:04;4.13;;;2.53;;
18510;SDS011;9384;48.044;11.616;2022-10-31T05:37:33;10.07;;;3.30;;
18510;SDS011;9384;48.044;11.616;2022-10-31T05:40:00;6.83;;;3.60;;
18510;SDS011;9384;48.044;11.616;2022-10-31T05:42:27;6.83;;;3.13;;
18510;SDS011;9384;48.044;11.616;2022-10-31T05:44:53;9.27;;;2.87;;
18510;SDS011;9384;48.044;11.616;2022-10-31T05:47:22;5.17;;;3.70;;
18510;SDS011;9384;48.044;11.616;2022-10-31T05:49:49;8.17;;;3.60;;
18510;SDS011;9384;48.044;11.616;2022-10-31T05:52:16;5.80;;;3.77;;
18510;SDS011;9384;48.044;11.616;2022-10-31T05:54:43;8.37;;;4.07;;
18510;SDS011;9384;48.044;11.616;2022-10-31T05:57:10;5.37;;;3.40;;
18510;SDS011;9384;48.044;11.616;2022-10-31T05:59:37;7.47;;;3.50;;
18510;SDS011;9384;48.044;11.616;2022-10-31T06:02:03;10.90;;;3.67;;
18510;SDS011;9384;48.044;11.616;2022-10-31T06:04:32;11.17;;;4.27;;
18510;SDS011;9384;48.044;11.616;2022-10-31T06:06:58;7.77;;;3.53;;
18510;SDS011;9384;48.044;11.616;2022-10-31T06:09:25;7.67;;;3.37;;
18510;SDS011;9384;48.044;11.616;2022-10-31T06:11:52;5.90;;;3.53;;
18510;SDS011;9384;48.044;11.616;2022-10-31T06:14:19;6.00;;;2.93;;
18510;SDS011;9384;48.044;11.616;2022-10-31T06:16:46;7.37;;;2.83;;
18510;SDS011;9384;48.044;11.616;2022-10-31T06:19:12;6.60;;;3.20;;
18510;SDS011;9384;48.044;11.616;2022-10-31T06:21:41;7.40;;;3.30;;
18510;SDS011;9384;48.044;11.616;2022-10-31T06:24:07;9.03;;;3.73;;
18510;SDS011;9384;48.044;11.616;2022-10-31T06:26:34;11.37;;;4.43;;
18510;SDS011;9384;48.044;11.616;2022-10-31T06:29:01;5.00;;;3.47;;
18510;SDS011;9384;48.044;11.616;2022-10-31T06:31:28;3.50;;;2.93;;
18510;SDS011;9384;48.044;11.616;2022-10-31T06:33:55;12.00;;;3.57;;
18510;SDS011;9384;48.044;11.616;2022-10-31T06:36:22;15.57;;;3.93;;
18510;SDS011;9384;48.044;11.616;2022-10-31T06:38:50;9.30;;;3.30;;
18510;SDS011;9384;48.044;11.616;2022-10-31T06:41:17;11.10;;;3.63;;
18510;SDS011;9384;48.044;11.616;2022-10-31T06:43:45;6.57;;;3.33;;
18510;SDS011;9384;48.044;11.616;2022-10-31T06:46:12;12.43;;;3.77;;
18510;SDS011;9384;48.044;11.616;2022-10-31T06:48:39;10.80;;;4.30;;
18510;SDS011;9384;48.044;11.616;2022-10-31T06:51:07;5.43;;;3.23;;
18510;SDS011;9384;48.044;11.616;2022-10-31T06:53:34;7.70;;;3.83;;
18510;SDS011;9384;48.044;11.616;2022-10-31T06:56:02;13.17;;;3.83;;
18510;SDS011;9384;48.044;11.616;2022-10-31T06:58:29;8.33;;;3.27;;
18510;SDS011;9384;48.044;11.616;2022-10-31T07:00:58;11.70;;;3.63;;
18510;SDS011;9384;48.044;11.616;2022-10-31T07:03:25;9.83;;;3.83;;
18510;SDS011;9384;48.044;11.616;2022-10-31T07:05:54;4.83;;;3.20;;
18510;SDS011;9384;48.044;11.616;2022-10-31T07:08:21;12.23;;;3.77;;
18510;SDS011;9384;48.044;11.616;2022-10-31T07:10:51;9.00;;;3.50;;
18510;SDS011;9384;48.044;11.616;2022-10-31T07:13:20;6.40;;;3.23;;
18510;SDS011;9384;48.044;11.616;2022-10-31T07:15:50;10.83;;;3.83;;
18510;SDS011;9384;48.044;11.616;2022-10-31T07:18:18;14.10;;;4.47;;
18510;SDS011;9384;48.044;11.616;2022-10-31T07:20:45;8.90;;;4.00;;
18510;SDS011;9384;48.044;11.616;2022-10-31T07:23:12;12.60;;;4.60;;
18510;SDS011;9384;48.044;11.616;2022-10-31T07:25:39;7.23;;;3.47;;
18510;SDS011;9384;48.044;11.616;2022-10-31T07:28:07;14.87;;;3.60;;
18510;SDS011;9384;48.044;11.616;2022-10-31T07:30:35;7.07;;;3.83;;
18510;SDS011;9384;48.044;11.616;2022-10-31T07:33:03;6.60;;;3.23;;
18510;SDS011;9384;48.044;11.616;2022-10-31T07:35:31;6.83;;;3.50;;
18510;SDS011;9384;48.044;11.616;2022-10-31T07:38:06;12.53;;;3.83;;
18510;SDS011;9384;48.044;11.616;2022-10-31T07:40:34;9.47;;;3.83;;
18510;SDS011;9384;48.044;11.616;2022-10-31T07:43:01;9.03;;;3.60;;
18510;SDS011;9384;48.044;11.616;2022-10-31T07:45:28;5.30;;;3.00;;
18510;SDS011;9384;48.044;11.616;2022-10-31T07:47:56;10.43;;;3.77;;
18510;SDS011;9384;48.044;11.616;2022-10-31T07:50:23;9.50;;;3.63;;
18510;SDS011;9384;48.044;11.616;2022-10-31T07:52:57;8.60;;;3.37;;
18510;SDS011;9384;48.044;11.616;2022-10-31T07:55:25;9.77;;;3.40;;
18510;SDS011;9384;48.044;11.616;2022-10-31T07:57:56;12.33;;;3.47;;
18510;SDS011;9384;48.044;11.616;2022-10-31T08:00:24;3.20;;;2.70;;
18510;SDS011;9384;48.044;11.616;2022-10-31T08:02:57;8.40;;;2.93;;
18510;SDS011;9384;48.044;11.616;2022-10-31T08:05:25;11.77;;;3.53;;
18510;SDS011;9384;48.044;11.616;2022-10-31T08:07:52;7.90;;;3.30;;
18510;SDS011;9384;48.044;11.616;2022-10-31T08:10:19;9.77;;;3.60;;
18510;SDS011;9384;48.044;11.616;2022-10-31T08:12:46;6.00;;;2.70;;
18510;SDS011;9384;48.044;11.616;2022-10-31T08:15:13;7.27;;;2.60;;
18510;SDS011;9384;48.044;11.616;2022-10-31T08:17:40;5.10;;;2.73;;
18510;SDS011;9384;48.044;11.616;2022-10-31T08:20:08;4.60;;;2.40;;
18510;SDS011;9384;48.044;11.616;2022-10-31T08:22:36;7.63;;;2.80;;
18510;SDS011;9384;48.044;11.616;2022-10-31T08:25:03;8.37;;;2.30;;
18510;SDS011;9384;48.044;11.616;2022-10-31T08:27:30;6.27;;;2.77;;
18510;SDS011;9384;48.044;11.616;2022-10-31T08:29:56;9.93;;;3.07;;
18510;SDS011;9384;48.044;11.616;2022-10-31T08:32:24;4.97;;;2.57;;
18510;SDS011;9384;48.044;11.616;2022-10-31T08:34:51;6.90;;;2.73;;
18510;SDS011;9384;48.044;11.616;2022-10-31T08:37:19;5.83;;;3.43;;
18510;SDS011;9384;48.044;11.616;2022-10-31T08:39:46;10.17;;;3.57;;
18510;SDS011;9384;48.044;11.616;2022-10-31T08:42:13;12.20;;;3.50;;
18510;SDS011;9384;48.044;11.616;2022-10-31T08:44:40;3.27;;;2.97;;
18510;SDS011;9384;48.044;11.616;2022-10-31T08:47:07;4.33;;;2.90;;
18510;SDS011;9384;48.044;11.616;2022-10-31T08:49:34;7.70;;;3.13;;
18510;SDS011;9384;48.044;11.616;2022-10-31T08:52:00;7.90;;;3.27;;
18510;SDS011;9384;48.044;11.616;2022-10-31T08:54:29;9.43;;;3.00;;
18510;SDS011;9384;48.044;11.616;2022-10-31T08:56:55;11.43;;;4.10;;
18510;SDS011;9384;48.044;11.616;2022-10-31T08:59:22;9.43;;;3.80;;
18510;SDS011;9384;48.044;11.616;2022-10-31T09:01:49;17.27;;;4.70;;
18510;SDS011;9384;48.044;11.616;2022-10-31T09:04:16;10.40;;;3.83;;
18510;SDS011;9384;48.044;11.616;2022-10-31T09:06:43;10.63;;;3.50;;
18510;SDS011;9384;48.044;11.616;2022-10-31T09:09:11;8.37;;;3.87;;
18510;SDS011;9384;48.044;11.616;2022-10-31T09:11:39;7.00;;;3.50;;
18510;SDS011;9384;48.044;11.616;2022-10-31T09:14:06;7.47;;;3.97;;
18510;SDS011;9384;48.044;11.616;2022-10-31T09:16:34;10.37;;;4.17;;
18510;SDS011;9384;48.044;11.616;2022-10-31T09:19:01;12.03;;;3.57;;
18510;SDS011;9384;48.044;11.616;2022-10-31T09:21:28;13.40;;;3.57;;
18510;SDS011;9384;48.044;11.616;2022-10-31T09:23:55;6.53;;;3.67;;
18510;SDS011;9384;48.044;11.616;2022-10-31T09:26:22;11.03;;;4.57;;
18510;SDS011;9384;48.044;11.616;2022-10-31T09:28:51;10.43;;;3.97;;
18510;SDS011;9384;48.044;11.616;2022-10-31T09:31:18;10.53;;;4.37;;
18510;SDS011;9384;48.044;11.616;2022-10-31T09:33:45;11.03;;;4.40;;
18510;SDS011;9384;48.044;11.616;2022-10-31T09:36:12;14.33;;;4.50;;
18510;SDS011;9384;48.044;11.616;2022-10-31T09:38:39;11.37;;;4.63;;
18510;SDS011;9384;48.044;11.616;2022-10-31T09:41:08;7.90;;;3.90;;
18510;SDS011;9384;48.044;11.616;2022-10-31T09:43:43;5.40;;;3.60;;
18510;SDS011;9384;48.044;11.616;2022-10-31T09:46:15;12.40;;;3.50;;
18510;SDS011;9384;48.044;11.616;2022-10-31T09:48:50;10.27;;;3.47;;
18510;SDS011;9384;48.044;11.616;2022-10-31T09:51:23;14.47;;;4.20;;
18510;SDS011;9384;48.044;11.616;2022-10-31T09:53:52;8.67;;;3.40;;
18510;SDS011;9384;48.044;11.616;2022-10-31T09:56:20;6.63;;;3.80;;
18510;SDS011;9384;48.044;11.616;2022-10-31T09:58:50;7.47;;;3.40;;
18510;SDS011;9384;48.044;11.616;2022-10-31T10:01:28;7.37;;;2.77;;
18510;SDS011;9384;48.044;11.616;2022-10-31T10:03:57;15.03;;;4.63;;
18510;SDS011;9384;48.044;11.616;2022-10-31T10:06:27;9.97;;;3.40;;
18510;SDS011;9384;48.044;11.616;2022-10-31T10:08:55;11.50;;;2.70;;
18510;SDS011;9384;48.044;11.616;2022-10-31T10:11:27;8.30;;;2.80;;
18510;SDS011;9384;48.044;11.616;2022-10-31T10:13:58;7.33;;;2.90;;
18510;SDS011;9384;48.044;11.616;2022-10-31T10:16:36;10.70;;;2.63;;
18510;SDS011;9384;48.044;11.616;2022-10-31T10:19:11;12.70;;;2.60;;
18510;SDS011;9384;48.044;11.616;2022-10-31T10:21:42;8.27;;;2.80;;
18510;SDS011;9384;48.044;11.616;2022-10-31T10:24:27;10.10;;;2.87;;
18510;SDS011;9384;48.044;11.616;2022-10-31T10:26:59;5.90;;;2.23;;
18510;SDS011;9384;48.044;11.616;2022-10-31T10:29:33;6.57;;;2.60;;
18510;SDS011;9384;48.044;11.616;2022-10-31T10:32:05;8.80;;;2.63;;
18510;SDS011;9384;48.044;11.616;2022-10-31T10:34:33;10.80;;;2.60;;
18510;SDS011;9384;48.044;11.616;2022-10-31T10:37:03;6.00;;;2.40;;
18510;SDS011;9384;48.044;11.616;2022-10-31T10:39:32;8.27;;;2.40;;
18510;SDS011;9384;48.044;11.616;2022-10-31T10:42:04;5.93;;;2.63;;
18510;SDS011;9384;48.044;11.616;2022-10-31T10:44:53;6.57;;;2.53;;
18510;SDS011;9384;48.044;11.616;2022-10-31T10:47:40;8.67;;;2.80;;
18510;SDS011;9384;48.044;11.616;2022-10-31T10:50:10;5.73;;;2.93;;
18510;SDS011;9384;48.044;11.616;2022-10-31T10:52:40;14.93;;;2.50;;
18510;SDS011;9384;48.044;11.616;2022-10-31T10:55:11;6.97;;;2.50;;
18510;SDS011;9384;48.044;11.616;2022-10-31T10:57:50;7.07;;;2.30;;
18510;SDS011;9384;48.044;11.616;2022-10-31T11:00:20;6.37;;;2.53;;
18510;SDS011;9384;48.044;11.616;2022-10-31T11:02:49;10.23;;;2.90;;
18510;SDS011;9384;48.044;11.616;2022-10-31T11:05:20;6.57;;;2.67;;
18510;SDS011;9384;48.044;11.616;2022-10-31T11:07:49;11.90;;;2.53;;
18510;SDS011;9384;48.044;11.616;2022-10-31T11:10:16;9.63;;;2.97;;
18510;SDS011;9384;48.044;11.616;2022-10-31T11:12:44;9.47;;;2.43;;
18510;SDS011;9384;48.044;11.616;2022-10-31T11:15:18;11.93;;;2.70;;
18510;SDS011;9384;48.044;11.616;2022-10-31T11:17:49;9.73;;;3.00;;
18510;SDS011;9384;48.044;11.616;2022-10-31T11:20:24;9.60;;;2.20;;
18510;SDS011;9384;48.044;11.616;2022-10-31T11:23:00;3.70;;;2.13;;
18510;SDS011;9384;48.044;11.616;2022-10-31T11:25:28;6.33;;;2.73;;
18510;SDS011;9384;48.044;11.616;2022-10-31T11:27:58;8.83;;;2.47;;
18510;SDS011;9384;48.044;11.616;2022-10-31T11:30:25;8.33;;;2.63;;
18510;SDS011;9384;48.044;11.616;2022-10-31T11:32:54;3.53;;;2.43;;
18510;SDS011;9384;48.044;11.616;2022-10-31T11:35:22;7.73;;;2.53;;
18510;SDS011;9384;48.044;11.616;2022-10-31T11:37:50;7.23;;;2.83;;
18510;SDS011;9384;48.044;11.616;2022-10-31T11:40:21;2.53;;;2.30;;
18510;SDS011;9384;48.044;11.616;2022-10-31T11:42:48;11.43;;;2.80;;
18510;SDS011;9384;48.044;11.616;2022-10-31T11:45:19;7.23;;;2.47;;
18510;SDS011;9384;48.044;11.616;2022-10-31T11:47:56;5.43;;;2.60;;
18510;SDS011;9384;48.044;11.616;2022-10-31T11:50:24;6.47;;;2.63;;
18510;SDS011;9384;48.044;11.616;2022-10-31T11:52:51;9.10;;;2.53;;
18510;SDS011;9384;48.044;11.616;2022-10-31T11:55:29;6.43;;;3.00;;
18510;SDS011;9384;48.044;11.616;2022-10-31T11:57:57;10.20;;;2.73;;
18510;SDS011;9384;48.044;11.616;2022-10-31T12:00:24;11.80;;;2.70;;
18510;SDS011;9384;48.044;11.616;2022-10-31T12:03:06;5.47;;;2.87;;
18510;SDS011;9384;48.044;11.616;2022-10-31T12:05:37;10.47;;;2.30;;
18510;SDS011;9384;48.044;11.616;2022-10-31T12:08:06;10.53;;;2.80;;
18510;SDS011;9384;48.044;11.616;2022-10-31T12:10:35;4.20;;;2.50;;
18510;SDS011;9384;48.044;11.616;2022-10-31T12:13:05;10.10;;;3.23;;
18510;SDS011;9384;48.044;11.616;2022-10-31T12:15:36;4.97;;;2.50;;
18510;SDS011;9384;48.044;11.616;2022-10-31T12:18:22;6.67;;;2.83;;
18510;SDS011;9384;48.044;11.616;2022-10-31T12:20:54;6.33;;;2.37;;
18510;SDS011;9384;48.044;11.616;2022-10-31T12:23:25;7.63;;;2.60;;
18510;SDS011;9384;48.044;11.616;2022-10-31T12:25:56;8.40;;;3.00;;
18510;SDS011;9384;48.044;11.616;2022-10-31T12:28:34;12.23;;;2.83;;
18510;SDS011;9384;48.044;11.616;2022-10-31T12:31:08;6.27;;;2.70;;
18510;SDS011;9384;48.044;11.616;2022-10-31T12:33:44;5.93;;;2.33;;
18510;SDS011;9384;48.044;11.616;2022-10-31T12:36:20;8.53;;;2.57;;
18510;SDS011;9384;48.044;11.616;2022-10-31T12:38:52;10.90;;;2.93;;
18510;SDS011;9384;48.044;11.616;2022-10-31T12:41:26;13.80;;;2.50;;
18510;SDS011;9384;48.044;11.616;2022-10-31T12:43:57;7.40;;;2.67;;
18510;SDS011;9384;48.044;11.616;2022-10-31T12:49:41;8.20;;;2.83;;
18510;SDS011;9384;48.044;11.616;2022-10-31T12:52:13;9.60;;;3.20;;
18510;SDS011;9384;48.044;11.616;2022-10-31T12:54:48;7.27;;;2.90;;
18510;SDS011;9384;48.044;11.616;2022-10-31T12:57:18;3.57;;;2.30;;
18510;SDS011;9384;48.044;11.616;2022-10-31T12:59:49;9.33;;;3.23;;
18510;SDS011;9384;48.044;11.616;2022-10-31T13:02:18;6.13;;;2.97;;
18510;SDS011;9384;48.044;11.616;2022-10-31T13:04:49;13.43;;;2.90;;
18510;SDS011;9384;48.044;11.616;2022-10-31T13:07:19;8.03;;;2.70;;
18510;SDS011;9384;48.044;11.616;2022-10-31T13:09:49;8.97;;;3.33;;
18510;SDS011;9384;48.044;11.616;2022-10-31T13:12:18;13.30;;;3.03;;
18510;SDS011;9384;48.044;11.616;2022-10-31T13:14:48;7.87;;;2.97;;
18510;SDS011;9384;48.044;11.616;2022-10-31T13:17:18;6.23;;;2.80;;
18510;SDS011;9384;48.044;11.616;2022-10-31T13:19:49;6.03;;;2.50;;
18510;SDS011;9384;48.044;11.616;2022-10-31T13:22:17;14.30;;;3.07;;
18510;SDS011;9384;48.044;11.616;2022-10-31T13:24:47;7.67;;;2.23;;
18510;SDS011;9384;48.044;11.616;2022-10-31T13:27:18;7.83;;;2.50;;
18510;SDS011;9384;48.044;11.616;2022-10-31T13:29:51;9.00;;;3.10;;
18510;SDS011;9384;48.044;11.616;2022-10-31T13:32:20;6.63;;;2.60;;
18510;SDS011;9384;48.044;11.616;2022-10-31T13:34:50;11.03;;;3.30;;
18510;SDS011;9384;48.044;11.616;2022-10-31T13:37:20;7.87;;;2.87;;
18510;SDS011;9384;48.044;11.616;2022-10-31T13:39:58;3.87;;;2.40;;
18510;SDS011;9384;48.044;11.616;2022-10-31T13:42:32;7.27;;;2.80;;
18510;SDS011;9384;48.044;11.616;2022-10-31T13:45:11;12.93;;;3.10;;
18510;SDS011;9384;48.044;11.616;2022-10-31T13:47:38;8.77;;;3.00;;
18510;SDS011;9384;48.044;11.616;2022-10-31T13:50:19;8.03;;;2.90;;
18510;SDS011;9384;48.044;11.616;2022-10-31T13:52:47;11.43;;;3.80;;
18510;SDS011;9384;48.044;11.616;2022-10-31T13:58:00;7.07;;;3.00;;
18510;SDS011;9384;48.044;11.616;2022-10-31T14:00:30;9.67;;;3.20;;
18510;SDS011;9384;48.044;11.616;2022-10-31T14:03:00;11.50;;;3.43;;
18510;SDS011;9384;48.044;11.616;2022-10-31T14:05:29;10.13;;;3.10;;
18510;SDS011;9384;48.044;11.616;2022-10-31T14:07:58;6.23;;;3.03;;
18510;SDS011;9384;48.044;11.616;2022-10-31T14:10:26;5.77;;;3.27;;
18510;SDS011;9384;48.044;11.616;2022-10-31T14:12:55;10.10;;;3.97;;
18510;SDS011;9384;48.044;11.616;2022-10-31T14:15:29;8.43;;;3.37;;
18510;SDS011;9384;48.044;11.616;2022-10-31T14:17:57;6.60;;;2.70;;
18510;SDS011;9384;48.044;11.616;2022-10-31T14:20:34;9.60;;;3.17;;
18510;SDS011;9384;48.044;11.616;2022-10-31T14:23:12;5.77;;;3.40;;
18510;SDS011;9384;48.044;11.616;2022-10-31T14:25:52;7.60;;;3.20;;
18510;SDS011;9384;48.044;11.616;2022-10-31T14:28:20;9.90;;;2.87;;
18510;SDS011;9384;48.044;11.616;2022-10-31T14:30:51;15.73;;;3.30;;
18510;SDS011;9384;48.044;11.616;2022-10-31T14:33:19;12.03;;;4.00;;
18510;SDS011;9384;48.044;11.616;2022-10-31T14:35:51;18.27;;;4.00;;
18510;SDS011;9384;48.044;11.616;2022-10-31T14:46:47;14.23;;;3.70;;
18510;SDS011;9384;48.044;11.616;2022-10-31T14:49:19;16.67;;;3.30;;
18510;SDS011;9384;48.044;11.616;2022-10-31T14:51:49;15.43;;;4.53;;
18510;SDS011;9384;48.044;11.616;2022-10-31T14:54:19;7.97;;;3.70;;
18510;SDS011;9384;48.044;11.616;2022-10-31T14:56:49;10.33;;;3.77;;
18510;SDS011;9384;48.044;11.616;2022-10-31T14:59:18;9.00;;;3.23;;
18510;SDS011;9384;48.044;11.616;2022-10-31T15:01:50;13.17;;;3.87;;
18510;SDS011;9384;48.044;11.616;2022-10-31T15:04:20;14.63;;;3.60;;
18510;SDS011;9384;48.044;11.616;2022-10-31T15:06:51;9.03;;;4.13;;
18510;SDS011;9384;48.044;11.616;2022-10-31T15:09:20;12.00;;;3.67;;
18510;SDS011;9384;48.044;11.616;2022-10-31T15:11:47;9.27;;;3.87;;
18510;SDS011;9384;48.044;11.616;2022-10-31T15:14:22;9.63;;;4.00;;
18510;SDS011;9384;48.044;11.616;2022-10-31T15:16:49;13.83;;;4.20;;
18510;SDS011;9384;48.044;11.616;2022-10-31T15:19:19;7.47;;;4.00;;
18510;SDS011;9384;48.044;11.616;2022-10-31T15:21:47;10.13;;;3.87;;